Terminal Aerodrome Forecast
Issued by NWS Amarillo, TX

Home | Current Version | Previous Version | Text Only | Print | Product List | Glossary On
Versions: 1 2 3 4 5 6 7 8 9 10 11 12
000
FTUS44 KAMA 311100
TAFDHT
TAF
KDHT 311120Z 3112/0112 04005KT P6SM SKC
     FM311800 16010KT P6SM SKC
     FM010600 19013G18KT P6SM SCT250=

USA.gov is the U.S. government's official web portal to all federal, state and local government web resources and services.